| time (UTC) | temp F | wind direction | speed MPH | gust MPH | rain 1hr in | rain 24hr in | rain mn in | humidity % | barometer mb |
| 20260906211742 | 84 | 251 | 3.0 | 3.0 | 0.00 | 0.00 | 0.00 | 37 | 1024.1 |
| 20260906211237 | 85 | 137 | 0.0 | 0.0 | 0.00 | 0.00 | 0.00 | 38 | 1024.0 |
| 20260906210732 | 84 | 182 | 2.0 | 3.0 | 0.00 | 0.00 | 0.00 | 39 | 1024.0 |
| 20260906210227 | 83 | 127 | 1.0 | 3.0 | 0.00 | 0.00 | 0.00 | 39 | 1024.5 |
| 20260906205722 | 84 | 192 | 2.0 | 5.0 | 0.00 | 0.00 | 0.00 | 39 | 1024.4 |
| 20260906205219 | 84 | 154 | 2.0 | 5.0 | 0.00 | 0.00 | 0.00 | 40 | 1024.6 |
| 20260906204719 | 83 | 66 | 1.0 | 2.0 | 0.00 | 0.00 | 0.00 | 41 | 1024.5 |
| 20260906204218 | 83 | 337 | 1.0 | 2.0 | 0.00 | 0.00 | 0.00 | 42 | 1024.7 |
| 20260906203718 | 82 | 188 | 2.0 | 2.0 | 0.00 | 0.00 | 0.00 | 43 | 1025.1 |
| 20260906203213 | 82 | 279 | 1.0 | 2.0 | 0.00 | 0.00 | 0.00 | 41 | 1024.1 |
| 20260906202710 | 83 | 69 | 3.0 | 5.0 | 0.00 | 0.00 | 0.00 | 41 | 1024.6 |
| 20260906202209 | 81 | 73 | 1.0 | 1.0 | 0.00 | 0.00 | 0.00 | 42 | 1024.7 |
| 20260906201704 | 84 | 106 | 3.0 | 5.0 | 0.00 | 0.00 | 0.00 | 41 | 1024.5 |
| 20260906201203 | 84 | 225 | 6.0 | 9.0 | 0.00 | 0.00 | 0.00 | 40 | 1024.6 |
| 20260906200659 | 84 | 151 | 2.0 | 3.0 | 0.00 | 0.00 | 0.00 | 41 | 1024.7 |
| 20260906200155 | 82 | 100 | 3.0 | 5.0 | 0.00 | 0.00 | 0.00 | 43 | 1024.9 |
| 20260906195650 | 82 | 129 | 1.0 | 1.0 | 0.00 | 0.00 | 0.00 | 43 | 1024.7 |
| 20260906195147 | 83 | 147 | 1.0 | 2.0 | 0.00 | 0.00 | 0.00 | 42 | 1024.9 |
| 20260906194642 | 82 | 325 | 1.0 | 1.0 | 0.00 | 0.00 | 0.00 | 42 | 1025.0 |
| 20260906194137 | 83 | 90 | 1.0 | 2.0 | 0.00 | 0.00 | 0.00 | 42 | 1024.7 |
| 20260906193632 | 81 | 96 | 0.0 | 1.0 | 0.00 | 0.00 | 0.00 | 42 | 1024.7 |
| 20260906193128 | 83 | 25 | 2.0 | 3.0 | 0.00 | 0.00 | 0.00 | 41 | 1024.9 |
| 20260906192623 | 82 | 214 | 3.0 | 5.0 | 0.00 | 0.00 | 0.00 | 41 | 1024.9 |
| 20260906192122 | 82 | 21 | 3.0 | 5.0 | 0.00 | 0.00 | 0.00 | 41 | 1025.0 |
| 20260906191618 | 84 | 58 | 2.0 | 2.0 | 0.00 | 0.00 | 0.00 | 39 | 1025.5 |
| 20260906191117 | 83 | 306 | 4.0 | 5.0 | 0.00 | 0.00 | 0.00 | 38 | 1025.0 |
| 20260906190617 | 82 | 134 | 1.0 | 1.0 | 0.00 | 0.00 | 0.00 | 39 | 1025.2 |
| 20260906190112 | 82 | 155 | 2.0 | 2.0 | 0.00 | 0.00 | 0.00 | 38 | 1025.4 |
| 20260906185610 | 84 | 206 | 3.0 | 6.0 | 0.00 | 0.00 | 0.00 | 37 | 1025.5 |
| 20260906185109 | 83 | 131 | 4.0 | 5.0 | 0.00 | 0.00 | 0.00 | 38 | 1026.1 |
| 20260906184604 | 82 | 132 | 0.0 | 1.0 | 0.00 | 0.00 | 0.00 | 40 | 1025.6 |
| 20260906184100 | 83 | 203 | 1.0 | 2.0 | 0.00 | 0.00 | 0.00 | 39 | 1026.1 |
| 20260906183556 | 82 | 219 | 2.0 | 2.0 | 0.00 | 0.00 | 0.00 | 38 | 1026.1 |
| 20260906183052 | 82 | 181 | 1.0 | 2.0 | 0.00 | 0.00 | 0.00 | 39 | 1025.7 |
| 20260906182546 | 82 | 245 | 1.0 | 2.0 | 0.00 | 0.00 | 0.00 | 40 | 1026.2 |
| 20260906182043 | 81 | 341 | 2.0 | 2.0 | 0.00 | 0.00 | 0.00 | 41 | 1026.4 |
| 20260906181538 | 82 | 173 | 3.0 | 6.0 | 0.00 | 0.00 | 0.00 | 40 | 1026.7 |
| 20260906181033 | 81 | 0 | 2.0 | 2.0 | 0.00 | 0.00 | 0.00 | 41 | 1026.6 |
| 20260906180528 | 81 | 146 | 3.0 | 3.0 | 0.00 | 0.00 | 0.00 | 40 | 1026.5 |
| 20260906180027 | 81 | 4 | 2.0 | 3.0 | 0.00 | 0.00 | 0.00 | 42 | 1026.6 |
| 20260906175526 | 80 | 192 | 2.0 | 3.0 | 0.00 | 0.00 | 0.00 | 42 | 1026.6 |
| 20260906175026 | 79 | 189 | 1.0 | 1.0 | 0.00 | 0.00 | 0.00 | 42 | 1026.7 |
| 20260906174524 | 78 | 1 | 1.0 | 1.0 | 0.00 | 0.00 | 0.00 | 43 | 1026.6 |
| 20260906174019 | 80 | 61 | 1.0 | 1.0 | 0.00 | 0.00 | 0.00 | 41 | 1026.9 |
| 20260906173514 | 80 | 201 | 1.0 | 2.0 | 0.00 | 0.00 | 0.00 | 40 | 1026.9 |
| 20260906173011 | 80 | 139 | 2.0 | 2.0 | 0.00 | 0.00 | 0.00 | 41 | 1027.0 |
| 20260906172505 | 79 | 351 | 3.0 | 3.0 | 0.00 | 0.00 | 0.00 | 41 | 1026.9 |
| 20260906172000 | 79 | 330 | 2.0 | 3.0 | 0.00 | 0.00 | 0.00 | 41 | 1027.0 |
| 20260906171455 | 80 | 358 | 1.0 | 2.0 | 0.00 | 0.00 | 0.00 | 41 | 1027.0 |
| 20260906170950 | 80 | 194 | 1.0 | 2.0 | 0.00 | 0.00 | 0.00 | 40 | 1027.0 |
| 20260906170446 | 79 | 357 | 1.0 | 1.0 | 0.00 | 0.00 | 0.00 | 42 | 1027.2 |
| 20260906165944 | 79 | 334 | 2.0 | 2.0 | 0.00 | 0.00 | 0.00 | 42 | 1027.2 |
| 20260906165442 | 79 | 348 | 3.0 | 3.0 | 0.00 | 0.00 | 0.00 | 42 | 1027.0 |
| 20260906164938 | 79 | 176 | 3.0 | 3.0 | 0.00 | 0.00 | 0.00 | 42 | 1027.1 |
| 20260906164436 | 78 | 71 | 2.0 | 2.0 | 0.00 | 0.00 | 0.00 | 42 | 1027.1 |
| 20260906163933 | 78 | 251 | 1.0 | 2.0 | 0.00 | 0.00 | 0.00 | 41 | 1027.0 |
| 20260906163428 | 78 | 23 | 1.0 | 1.0 | 0.00 | 0.00 | 0.00 | 42 | 1027.1 |
| 20260906162927 | 77 | 95 | 0.0 | 0.0 | 0.00 | 0.00 | 0.00 | 42 | 1026.9 |
| 20260906162425 | 77 | 5 | 2.0 | 2.0 | 0.00 | 0.00 | 0.00 | 43 | 1027.0 |
| 20260906161921 | 77 | 59 | 1.0 | 3.0 | 0.00 | 0.00 | 0.00 | 44 | 1027.0 |
| 20260906161420 | 77 | 96 | 3.0 | 3.0 | 0.00 | 0.00 | 0.00 | 44 | 1026.7 |
| 20260906160919 | 75 | 330 | 1.0 | 1.0 | 0.00 | 0.00 | 0.00 | 46 | 1027.2 |
| 20260906160413 | 75 | 1 | 2.0 | 2.0 | 0.00 | 0.00 | 0.00 | 46 | 1027.1 |
| 20260906155911 | 75 | 145 | 0.0 | 0.0 | 0.00 | 0.00 | 0.00 | 46 | 1027.0 |
| 20260906155405 | 75 | 47 | 1.0 | 1.0 | 0.00 | 0.00 | 0.00 | 45 | 1027.0 |
| 20260906154901 | 75 | 4 | 2.0 | 3.0 | 0.00 | 0.00 | 0.00 | 44 | 1026.7 |
| 20260906154355 | 75 | 151 | 2.0 | 2.0 | 0.00 | 0.00 | 0.00 | 43 | 1027.0 |
| 20260906153854 | 74 | 350 | 3.0 | 3.0 | 0.00 | 0.00 | 0.00 | 43 | 1026.9 |
| 20260906153353 | 74 | 187 | 3.0 | 3.0 | 0.00 | 0.00 | 0.00 | 43 | 1026.7 |
| 20260906152848 | 74 | 26 | 2.0 | 2.0 | 0.00 | 0.00 | 0.00 | 44 | 1026.7 |
| 20260906152343 | 73 | 342 | 2.0 | 2.0 | 0.00 | 0.00 | 0.00 | 46 | 1026.6 |
| 20260906151842 | 73 | 356 | 1.0 | 2.0 | 0.00 | 0.00 | 0.00 | 45 | 1027.0 |
| 20260906151338 | 73 | 339 | 2.0 | 2.0 | 0.00 | 0.00 | 0.00 | 46 | 1026.9 |
| 20260906150834 | 72 | 268 | 2.0 | 2.0 | 0.00 | 0.00 | 0.00 | 46 | 1026.7 |
| 20260906150329 | 72 | 350 | 1.0 | 1.0 | 0.00 | 0.00 | 0.00 | 47 | 1026.6 |
| 20260906145828 | 71 | 272 | 1.0 | 2.0 | 0.00 | 0.00 | 0.00 | 47 | 1026.6 |
| 20260906145327 | 71 | 272 | 2.0 | 2.0 | 0.00 | 0.00 | 0.00 | 47 | 1026.9 |
| 20260906144822 | 71 | 35 | 2.0 | 2.0 | 0.00 | 0.00 | 0.00 | 48 | 1026.6 |
| 20260906144317 | 71 | 6 | 2.0 | 2.0 | 0.00 | 0.00 | 0.00 | 50 | 1026.7 |
| 20260906143816 | 70 | 351 | 2.0 | 2.0 | 0.00 | 0.00 | 0.00 | 50 | 1026.9 |
| 20260906143314 | 70 | 337 | 2.0 | 2.0 | 0.00 | 0.00 | 0.00 | 51 | 1026.5 |
| 20260906142809 | 69 | 343 | 1.0 | 2.0 | 0.00 | 0.00 | 0.00 | 50 | 1026.6 |
| 20260906142306 | 69 | 348 | 1.0 | 1.0 | 0.00 | 0.00 | 0.00 | 51 | 1026.1 |
| 20260906141803 | 68 | 346 | 2.0 | 2.0 | 0.00 | 0.00 | 0.00 | 52 | 1026.4 |
| 20260906141257 | 68 | 36 | 2.0 | 2.0 | 0.00 | 0.00 | 0.00 | 52 | 1026.2 |
| 20260906140756 | 67 | 52 | 2.0 | 2.0 | 0.00 | 0.00 | 0.00 | 53 | 1026.4 |
| 20260906140251 | 67 | 25 | 2.0 | 2.0 | 0.00 | 0.00 | 0.00 | 54 | 1026.2 |
| 20260906135749 | 66 | 307 | 1.0 | 1.0 | 0.00 | 0.00 | 0.00 | 56 | 1026.4 |
| 20260906135244 | 66 | 355 | 2.0 | 2.0 | 0.00 | 0.00 | 0.00 | 56 | 1026.2 |
| 20260906134740 | 64 | 347 | 2.0 | 3.0 | 0.00 | 0.00 | 0.00 | 57 | 1026.4 |
| 20260906134235 | 64 | 6 | 2.0 | 2.0 | 0.00 | 0.00 | 0.00 | 58 | 1025.9 |
| 20260906133730 | 64 | 341 | 1.0 | 2.0 | 0.00 | 0.00 | 0.00 | 58 | 1026.1 |
| 20260906133226 | 64 | 348 | 2.0 | 2.0 | 0.00 | 0.00 | 0.00 | 59 | 1026.2 |
| 20260906132721 | 63 | 358 | 1.0 | 2.0 | 0.00 | 0.00 | 0.00 | 59 | 1026.0 |
| 20260906132216 | 63 | 344 | 2.0 | 2.0 | 0.00 | 0.00 | 0.00 | 59 | 1026.1 |
| 20260906131712 | 63 | 347 | 1.0 | 2.0 | 0.00 | 0.00 | 0.00 | 59 | 1025.9 |
| 20260906131207 | 62 | 338 | 1.0 | 1.0 | 0.00 | 0.00 | 0.00 | 59 | 1026.0 |
| 20260906130702 | 62 | 352 | 2.0 | 2.0 | 0.00 | 0.00 | 0.00 | 59 | 1025.7 |
| 20260906130157 | 62 | 334 | 1.0 | 2.0 | 0.00 | 0.00 | 0.00 | 59 | 1026.0 |
| 20260906125655 | 62 | 349 | 2.0 | 2.0 | 0.00 | 0.00 | 0.00 | 60 | 1025.6 |
| 20260906125154 | 62 | 341 | 2.0 | 2.0 | 0.00 | 0.00 | 0.00 | 59 | 1025.7 |
| 20260906124649 | 62 | 359 | 2.0 | 3.0 | 0.00 | 0.00 | 0.00 | 59 | 1025.7 |
| 20260906124144 | 62 | 344 | 2.0 | 3.0 | 0.00 | 0.00 | 0.00 | 59 | 1026.1 |
| 20260906123643 | 62 | 349 | 2.0 | 2.0 | 0.00 | 0.00 | 0.00 | 59 | 1025.9 |
| 20260906123139 | 63 | 329 | 1.0 | 2.0 | 0.00 | 0.00 | 0.00 | 57 | 1026.0 |
| 20260906122638 | 63 | 359 | 2.0 | 2.0 | 0.00 | 0.00 | 0.00 | 57 | 1025.9 |
| 20260906122134 | 63 | 12 | 2.0 | 2.0 | 0.00 | 0.00 | 0.00 | 57 | 1025.6 |
| 20260906121630 | 63 | 354 | 2.0 | 2.0 | 0.00 | 0.00 | 0.00 | 57 | 1025.9 |
| 20260906121126 | 63 | 345 | 1.0 | 2.0 | 0.00 | 0.00 | 0.00 | 57 | 1026.0 |
| 20260906120622 | 63 | 354 | 1.0 | 1.0 | 0.00 | 0.00 | 0.00 | 57 | 1025.7 |
| 20260906120119 | 63 | 347 | 2.0 | 2.0 | 0.00 | 0.00 | 0.00 | 57 | 1025.6 |
| 20260906115618 | 63 | 354 | 2.0 | 2.0 | 0.00 | 0.00 | 0.00 | 57 | 1025.6 |
| 20260906115115 | 63 | 354 | 1.0 | 1.0 | 0.00 | 0.00 | 0.00 | 56 | 1025.6 |
| 20260906114614 | 63 | 345 | 2.0 | 2.0 | 0.00 | 0.00 | 0.00 | 56 | 1025.7 |
| 20260906114109 | 63 | 357 | 2.0 | 2.0 | 0.00 | 0.00 | 0.00 | 56 | 1025.4 |
| 20260906113609 | 63 | 356 | 2.0 | 2.0 | 0.00 | 0.00 | 0.00 | 56 | 1025.7 |
| 20260906113103 | 63 | 354 | 2.0 | 2.0 | 0.00 | 0.00 | 0.00 | 56 | 1025.5 |
| 20260906112557 | 63 | 350 | 2.0 | 2.0 | 0.00 | 0.00 | 0.00 | 56 | 1025.5 |
| 20260906112055 | 63 | 357 | 2.0 | 2.0 | 0.00 | 0.00 | 0.00 | 56 | 1025.5 |
| 20260906111554 | 63 | 348 | 2.0 | 2.0 | 0.00 | 0.00 | 0.00 | 56 | 1025.4 |
| 20260906111049 | 63 | 357 | 2.0 | 2.0 | 0.00 | 0.00 | 0.00 | 56 | 1025.1 |
| 20260906110549 | 63 | 346 | 1.0 | 1.0 | 0.00 | 0.00 | 0.00 | 58 | 1025.1 |
| 20260906110048 | 63 | 347 | 2.0 | 2.0 | 0.00 | 0.00 | 0.00 | 57 | 1025.2 |
| 20260906105543 | 63 | 345 | 2.0 | 2.0 | 0.00 | 0.00 | 0.00 | 57 | 1025.2 |
| 20260906105039 | 63 | 342 | 2.0 | 2.0 | 0.00 | 0.00 | 0.00 | 57 | 1025.4 |
| 20260906104538 | 63 | 346 | 1.0 | 2.0 | 0.00 | 0.00 | 0.00 | 58 | 1025.2 |
| 20260906104032 | 62 | 1 | 1.0 | 1.0 | 0.00 | 0.00 | 0.00 | 59 | 1025.4 |
| 20260906103530 | 62 | 340 | 2.0 | 2.0 | 0.00 | 0.00 | 0.00 | 60 | 1025.6 |
| 20260906103026 | 62 | 345 | 2.0 | 2.0 | 0.00 | 0.00 | 0.00 | 61 | 1025.4 |
| 20260906102526 | 62 | 345 | 0.0 | 0.0 | 0.00 | 0.00 | 0.00 | 62 | 1025.6 |
| 20260906102021 | 62 | 346 | 0.0 | 0.0 | 0.00 | 0.00 | 0.00 | 62 | 1025.6 |
| 20260906101521 | 62 | 346 | 0.0 | 0.0 | 0.00 | 0.00 | 0.00 | 62 | 1025.5 |
| 20260906101016 | 62 | 343 | 0.0 | 0.0 | 0.00 | 0.00 | 0.00 | 63 | 1025.6 |
| 20260906100512 | 62 | 353 | 0.0 | 0.0 | 0.00 | 0.00 | 0.00 | 64 | 1025.6 |
| 20260906100006 | 62 | 349 | 0.0 | 0.0 | 0.00 | 0.00 | 0.00 | 64 | 1025.5 |
| 20260906095501 | 62 | 346 | 0.0 | 0.0 | 0.00 | 0.00 | 0.00 | 65 | 1025.9 |
| 20260906094956 | 62 | 343 | 0.0 | 0.0 | 0.00 | 0.00 | 0.00 | 66 | 1025.7 |
| 20260906094455 | 62 | 350 | 0.0 | 0.0 | 0.00 | 0.00 | 0.00 | 66 | 1025.7 |
| 20260906093951 | 62 | 1 | 0.0 | 0.0 | 0.00 | 0.00 | 0.00 | 66 | 1025.7 |
| 20260906093447 | 62 | 339 | 0.0 | 0.0 | 0.00 | 0.00 | 0.00 | 67 | 1025.9 |
| 20260906092942 | 62 | 345 | 0.0 | 0.0 | 0.00 | 0.00 | 0.00 | 69 | 1026.0 |
| 20260906092442 | 62 | 351 | 0.0 | 0.0 | 0.00 | 0.00 | 0.00 | 68 | 1025.7 |
| 20260906091937 | 63 | 348 | 0.0 | 0.0 | 0.00 | 0.00 | 0.00 | 68 | 1025.6 |
| 20260906091433 | 63 | 342 | 0.0 | 0.0 | 0.00 | 0.00 | 0.00 | 68 | 1026.0 |
| 20260906090929 | 63 | 347 | 0.0 | 0.0 | 0.00 | 0.00 | 0.00 | 68 | 1025.7 |
| 20260906090424 | 63 | 351 | 0.0 | 0.0 | 0.00 | 0.00 | 0.00 | 69 | 1025.9 |
| 20260906085918 | 64 | 351 | 0.0 | 0.0 | 0.00 | 0.00 | 0.00 | 69 | 1025.7 |
| 20260906085412 | 64 | 344 | 0.0 | 0.0 | 0.00 | 0.00 | 0.00 | 69 | 1025.5 |
| 20260906084911 | 64 | 341 | 0.0 | 0.0 | 0.00 | 0.00 | 0.00 | 70 | 1025.7 |
| 20260906084406 | 64 | 350 | 1.0 | 1.0 | 0.00 | 0.00 | 0.00 | 70 | 1025.6 |
| 20260906083905 | 64 | 355 | 0.0 | 0.0 | 0.00 | 0.00 | 0.00 | 71 | 1025.6 |
| 20260906083401 | 64 | 345 | 1.0 | 1.0 | 0.00 | 0.00 | 0.00 | 71 | 1025.5 |
| 20260906082900 | 64 | 337 | 1.0 | 1.0 | 0.00 | 0.00 | 0.00 | 71 | 1025.7 |
| 20260906082355 | 64 | 337 | 1.0 | 1.0 | 0.00 | 0.00 | 0.00 | 72 | 1025.9 |
| 20260906081852 | 64 | 358 | 1.0 | 1.0 | 0.00 | 0.00 | 0.00 | 72 | 1025.5 |
| 20260906081347 | 64 | 348 | 1.0 | 2.0 | 0.00 | 0.00 | 0.00 | 72 | 1025.7 |
| 20260906080843 | 64 | 344 | 1.0 | 1.0 | 0.00 | 0.00 | 0.00 | 73 | 1025.6 |
| 20260906080339 | 63 | 301 | 0.0 | 0.0 | 0.00 | 0.00 | 0.00 | 74 | 1025.4 |
| 20260906075838 | 63 | 324 | 0.0 | 0.0 | 0.00 | 0.00 | 0.00 | 74 | 1025.6 |
| 20260906075333 | 63 | 333 | 1.0 | 1.0 | 0.00 | 0.00 | 0.00 | 73 | 1025.7 |
| 20260906074829 | 63 | 317 | 0.0 | 0.0 | 0.00 | 0.00 | 0.00 | 74 | 1025.6 |
| 20260906074328 | 62 | 337 | 1.0 | 1.0 | 0.00 | 0.00 | 0.00 | 74 | 1025.5 |
| 20260906073827 | 62 | 295 | 0.0 | 0.0 | 0.00 | 0.00 | 0.00 | 75 | 1025.7 |
| 20260906073322 | 62 | 328 | 1.0 | 1.0 | 0.00 | 0.00 | 0.00 | 75 | 1025.7 |
| 20260906072818 | 62 | 322 | 0.0 | 0.0 | 0.00 | 0.00 | 0.00 | 76 | 1026.2 |
| 20260906072314 | 61 | 298 | 0.0 | 0.0 | 0.00 | 0.00 | 0.00 | 77 | 1026.1 |
| 20260906071810 | 61 | 304 | 0.0 | 0.0 | 0.00 | 0.00 | 0.00 | 77 | 1026.0 |
| 20260906071304 | 62 | 302 | 0.0 | 0.0 | 0.00 | 0.00 | 0.00 | 76 | 1026.2 |
| 20260906070801 | 62 | 296 | 0.0 | 0.0 | 0.00 | 0.00 | 0.00 | 76 | 1025.9 |
| 20260906070256 | 62 | 314 | 1.0 | 2.0 | 0.00 | 0.00 | 0.00 | 76 | 1026.0 |
| 20260906065756 | 62 | 313 | 0.0 | 0.0 | 0.00 | 0.00 | 0.00 | 75 | 1026.0 |
| 20260906065251 | 62 | 294 | 0.0 | 0.0 | 0.00 | 0.00 | 0.00 | 75 | 1026.1 |
| 20260906064747 | 62 | 302 | 0.0 | 0.0 | 0.00 | 0.00 | 0.00 | 75 | 1026.4 |
| 20260906064243 | 62 | 323 | 0.0 | 0.0 | 0.00 | 0.00 | 0.00 | 76 | 1026.4 |
| 20260906063737 | 62 | 321 | 0.0 | 0.0 | 0.00 | 0.00 | 0.00 | 75 | 1026.2 |
| 20260906063233 | 62 | 315 | 0.0 | 0.0 | 0.00 | 0.00 | 0.00 | 76 | 1026.4 |
| 20260906062728 | 62 | 316 | 0.0 | 0.0 | 0.00 | 0.00 | 0.00 | 75 | 1025.7 |
| 20260906062227 | 62 | 292 | 0.0 | 0.0 | 0.00 | 0.00 | 0.00 | 76 | 1026.1 |
| 20260906061723 | 62 | 293 | 0.0 | 0.0 | 0.00 | 0.00 | 0.00 | 76 | 1025.9 |
| 20260906061219 | 62 | 292 | 0.0 | 0.0 | 0.00 | 0.00 | 0.00 | 76 | 1026.0 |
| 20260906060715 | 62 | 292 | 0.0 | 0.0 | 0.00 | 0.00 | 0.00 | 77 | 1025.9 |
| 20260906060212 | 61 | 297 | 0.0 | 0.0 | 0.00 | 0.00 | 0.00 | 77 | 1025.9 |
| 20260906055707 | 61 | 318 | 0.0 | 0.0 | 0.00 | 0.00 | 0.00 | 78 | 1026.1 |
| 20260906055203 | 61 | 303 | 0.0 | 0.0 | 0.00 | 0.00 | 0.00 | 78 | 1025.9 |
| 20260906054657 | 61 | 280 | 0.0 | 0.0 | 0.00 | 0.00 | 0.00 | 79 | 1025.9 |
| 20260906054152 | 61 | 325 | 0.0 | 0.0 | 0.00 | 0.00 | 0.00 | 78 | 1026.1 |
| 20260906053649 | 61 | 317 | 0.0 | 0.0 | 0.00 | 0.00 | 0.00 | 78 | 1026.0 |
| 20260906053144 | 62 | 317 | 0.0 | 0.0 | 0.00 | 0.00 | 0.00 | 77 | 1025.9 |
| 20260906052639 | 62 | 320 | 0.0 | 0.0 | 0.00 | 0.00 | 0.00 | 77 | 1025.7 |
| 20260906052136 | 62 | 303 | 0.0 | 0.0 | 0.00 | 0.00 | 0.00 | 77 | 1025.9 |
| 20260906051632 | 62 | 293 | 0.0 | 0.0 | 0.00 | 0.00 | 0.00 | 76 | 1026.2 |
| 20260906051131 | 62 | 314 | 0.0 | 0.0 | 0.00 | 0.00 | 0.00 | 76 | 1026.1 |
| 20260906050627 | 62 | 290 | 0.0 | 0.0 | 0.00 | 0.00 | 0.00 | 76 | 1026.1 |
| 20260906050122 | 63 | 315 | 0.0 | 0.0 | 0.00 | 0.00 | 0.00 | 76 | 1026.2 |
| 20260906045620 | 63 | 315 | 0.0 | 0.0 | 0.00 | 0.00 | 0.00 | 76 | 1025.9 |
| 20260906045116 | 63 | 308 | 0.0 | 0.0 | 0.00 | 0.00 | 0.00 | 75 | 1025.9 |
| 20260906044612 | 63 | 294 | 0.0 | 0.0 | 0.00 | 0.00 | 0.00 | 75 | 1026.1 |
| 20260906044107 | 64 | 304 | 0.0 | 0.0 | 0.00 | 0.00 | 0.00 | 74 | 1026.2 |
| 20260906043603 | 64 | 281 | 0.0 | 0.0 | 0.00 | 0.00 | 0.00 | 74 | 1026.2 |
| 20260906043058 | 64 | 280 | 0.0 | 0.0 | 0.00 | 0.00 | 0.00 | 74 | 1026.1 |
| 20260906042557 | 65 | 310 | 0.0 | 0.0 | 0.00 | 0.00 | 0.00 | 73 | 1026.2 |
| 20260906042052 | 65 | 332 | 0.0 | 0.0 | 0.00 | 0.00 | 0.00 | 73 | 1026.2 |
| 20260906041549 | 65 | 262 | 1.0 | 1.0 | 0.00 | 0.00 | 0.00 | 73 | 1026.4 |
| 20260906041043 | 66 | 263 | 0.0 | 1.0 | 0.00 | 0.00 | 0.00 | 72 | 1026.2 |
| 20260906040538 | 66 | 213 | 0.0 | 1.0 | 0.00 | 0.00 | 0.00 | 73 | 1026.1 |
| 20260906040034 | 66 | 331 | 0.0 | 0.0 | 0.00 | 0.00 | 0.00 | 73 | 1026.2 |
| 20260906035529 | 66 | 340 | 0.0 | 0.0 | 0.00 | 0.00 | 0.00 | 72 | 1026.5 |
| 20260906035025 | 66 | 332 | 0.0 | 1.0 | 0.00 | 0.00 | 0.00 | 73 | 1026.4 |
| 20260906034524 | 66 | 331 | 0.0 | 0.0 | 0.00 | 0.00 | 0.00 | 72 | 1026.4 |
| 20260906034020 | 66 | 323 | 0.0 | 0.0 | 0.00 | 0.00 | 0.00 | 72 | 1026.6 |
| 20260906033514 | 66 | 336 | 0.0 | 0.0 | 0.00 | 0.00 | 0.00 | 72 | 1026.4 |
| 20260906033010 | 67 | 336 | 1.0 | 1.0 | 0.00 | 0.00 | 0.00 | 72 | 1026.2 |
| 20260906032506 | 67 | 334 | 0.0 | 1.0 | 0.00 | 0.00 | 0.00 | 72 | 1026.4 |
| 20260906032001 | 67 | 340 | 0.0 | 0.0 | 0.00 | 0.00 | 0.00 | 71 | 1026.2 |
| 20260906031456 | 67 | 327 | 0.0 | 0.0 | 0.00 | 0.00 | 0.00 | 71 | 1026.4 |
| 20260906030951 | 68 | 72 | 0.0 | 0.0 | 0.00 | 0.00 | 0.00 | 70 | 1026.2 |
| 20260906030446 | 68 | 63 | 1.0 | 1.0 | 0.00 | 0.00 | 0.00 | 70 | 1026.0 |
| 20260906025940 | 68 | 38 | 0.0 | 0.0 | 0.00 | 0.00 | 0.00 | 70 | 1025.7 |
| 20260906025440 | 68 | 356 | 0.0 | 0.0 | 0.00 | 0.00 | 0.00 | 69 | 1025.6 |
| 20260906024938 | 68 | 1 | 1.0 | 2.0 | 0.00 | 0.00 | 0.00 | 69 | 1025.7 |
| 20260906024433 | 69 | 18 | 0.0 | 1.0 | 0.00 | 0.00 | 0.00 | 69 | 1025.7 |
| 20260906023933 | 69 | 107 | 0.0 | 0.0 | 0.00 | 0.00 | 0.00 | 68 | 1025.9 |
| 20260906023429 | 69 | 331 | 0.0 | 1.0 | 0.00 | 0.00 | 0.00 | 68 | 1025.9 |
| 20260906022924 | 70 | 325 | 0.0 | 0.0 | 0.00 | 0.00 | 0.00 | 67 | 1025.7 |
| 20260906022419 | 70 | 18 | 2.0 | 2.0 | 0.00 | 0.00 | 0.00 | 66 | 1025.6 |
| 20260906021915 | 71 | 107 | 1.0 | 1.0 | 0.00 | 0.00 | 0.00 | 65 | 1025.7 |
| 20260906021414 | 71 | 135 | 2.0 | 2.0 | 0.00 | 0.00 | 0.00 | 64 | 1025.5 |
| 20260906020909 | 71 | 13 | 2.0 | 2.0 | 0.00 | 0.00 | 0.00 | 62 | 1025.6 |
| 20260906020403 | 71 | 283 | 1.0 | 2.0 | 0.00 | 0.00 | 0.00 | 57 | 1025.7 |
| 20260906015857 | 71 | 99 | 1.0 | 2.0 | 0.00 | 0.00 | 0.00 | 53 | 1025.4 |
| 20260906015357 | 70 | 345 | 0.0 | 0.0 | 0.00 | 0.00 | 0.00 | 43 | 1025.2 |
| 20260906014857 | 70 | 335 | 0.0 | 0.0 | 0.00 | 0.00 | 0.00 | 43 | 1024.9 |
| 20260906014357 | 71 | 348 | 0.0 | 0.0 | 0.00 | 0.00 | 0.00 | 43 | 1024.9 |
| 20260906013853 | 71 | 337 | 0.0 | 0.0 | 0.00 | 0.00 | 0.00 | 43 | 1024.9 |
| 20260906013348 | 72 | 344 | 1.0 | 1.0 | 0.00 | 0.00 | 0.00 | 42 | 1024.9 |
| 20260906012844 | 72 | 346 | 1.0 | 1.0 | 0.00 | 0.00 | 0.00 | 41 | 1025.0 |
| 20260906012339 | 72 | 338 | 0.0 | 0.0 | 0.00 | 0.00 | 0.00 | 41 | 1024.9 |
| 20260906011838 | 73 | 343 | 0.0 | 0.0 | 0.00 | 0.00 | 0.00 | 40 | 1025.0 |
| 20260906011333 | 74 | 343 | 0.0 | 0.0 | 0.00 | 0.00 | 0.00 | 40 | 1025.0 |
| 20260906010829 | 74 | 343 | 0.0 | 0.0 | 0.00 | 0.00 | 0.00 | 39 | 1025.0 |
| 20260906010325 | 75 | 343 | 0.0 | 0.0 | 0.00 | 0.00 | 0.00 | 39 | 1025.1 |
| 20260906005821 | 75 | 344 | 0.0 | 0.0 | 0.00 | 0.00 | 0.00 | 38 | 1025.2 |
| 20260906005319 | 76 | 335 | 0.0 | 0.0 | 0.00 | 0.00 | 0.00 | 38 | 1025.1 |
| 20260906004819 | 76 | 335 | 0.0 | 0.0 | 0.00 | 0.00 | 0.00 | 38 | 1025.0 |
| 20260906004318 | 77 | 335 | 0.0 | 0.0 | 0.00 | 0.00 | 0.00 | 37 | 1025.0 |
| 20260906003814 | 77 | 335 | 0.0 | 0.0 | 0.00 | 0.00 | 0.00 | 37 | 1025.1 |
| 20260906003309 | 77 | 335 | 1.0 | 1.0 | 0.00 | 0.00 | 0.00 | 36 | 1025.1 |
| 20260906002805 | 78 | 335 | 0.0 | 0.0 | 0.00 | 0.00 | 0.00 | 36 | 1025.1 |
| 20260906002306 | 78 | 335 | 0.0 | 0.0 | 0.00 | 0.00 | 0.00 | 35 | 1025.4 |
| 20260906001800 | 78 | 335 | 0.0 | 0.0 | 0.00 | 0.00 | 0.00 | 35 | 1025.0 |
| 20260906001254 | 78 | 320 | 0.0 | 1.0 | 0.00 | 0.00 | 0.00 | 35 | 1024.9 |
| 20260906000749 | 78 | 324 | 1.0 | 1.0 | 0.00 | 0.00 | 0.00 | 35 | 1024.9 |
| 20260906000244 | 78 | 313 | 1.0 | 1.0 | 0.00 | 0.00 | 0.00 | 35 | 1025.1 |
| 20260905235739 | 78 | 320 | 0.0 | 0.0 | 0.00 | 0.00 | 0.00 | 35 | 1025.2 |
| 20260905235238 | 78 | 333 | 0.0 | 1.0 | 0.00 | 0.00 | 0.00 | 35 | 1024.9 |
| 20260905234734 | 79 | 334 | 0.0 | 0.0 | 0.00 | 0.00 | 0.00 | 36 | 1025.0 |
| 20260905234229 | 79 | 320 | 0.0 | 0.0 | 0.00 | 0.00 | 0.00 | 34 | 1024.6 |
| 20260905233725 | 80 | 336 | 0.0 | 0.0 | 0.00 | 0.00 | 0.00 | 33 | 1025.1 |
| 20260905233224 | 80 | 319 | 0.0 | 0.0 | 0.00 | 0.00 | 0.00 | 33 | 1025.0 |
| 20260905232719 | 80 | 319 | 0.0 | 0.0 | 0.00 | 0.00 | 0.00 | 32 | 1025.0 |
| 20260905232215 | 81 | 304 | 0.0 | 0.0 | 0.00 | 0.00 | 0.00 | 32 | 1025.0 |
| 20260905231710 | 80 | 338 | 0.0 | 0.0 | 0.00 | 0.00 | 0.00 | 33 | 1024.7 |
| 20260905231206 | 81 | 347 | 2.0 | 2.0 | 0.00 | 0.00 | 0.00 | 32 | 1024.7 |
| 20260905230702 | 81 | 306 | 1.0 | 1.0 | 0.00 | 0.00 | 0.00 | 31 | 1024.9 |
| 20260905230200 | 82 | 311 | 0.0 | 1.0 | 0.00 | 0.00 | 0.00 | 31 | 1024.9 |
| 20260905225659 | 83 | 281 | 0.0 | 0.0 | 0.00 | 0.00 | 0.00 | 30 | 1024.6 |
| 20260905225154 | 83 | 205 | 0.0 | 0.0 | 0.00 | 0.00 | 0.00 | 30 | 1025.0 |
| 20260905224653 | 82 | 249 | 1.0 | 2.0 | 0.00 | 0.00 | 0.00 | 30 | 1025.0 |
| 20260905224148 | 82 | 283 | 0.0 | 0.0 | 0.00 | 0.00 | 0.00 | 31 | 1025.1 |
| 20260905223645 | 81 | 244 | 1.0 | 2.0 | 0.00 | 0.00 | 0.00 | 32 | 1025.1 |
| 20260905223142 | 82 | 287 | 2.0 | 2.0 | 0.00 | 0.00 | 0.00 | 31 | 1025.4 |
| 20260905222637 | 81 | 331 | 1.0 | 2.0 | 0.00 | 0.00 | 0.00 | 32 | 1025.1 |
| 20260905222131 | 81 | 302 | 0.0 | 0.0 | 0.00 | 0.00 | 0.00 | 32 | 1025.2 |
| 20260905221627 | 80 | 316 | 1.0 | 2.0 | 0.00 | 0.00 | 0.00 | 32 | 1025.4 |
| 20260905221123 | 81 | 238 | 0.0 | 1.0 | 0.00 | 0.00 | 0.00 | 32 | 1025.1 |
| 20260905220613 | 83 | 337 | 2.0 | 2.0 | 0.00 | 0.00 | 0.00 | 31 | 1025.2 |
| 20260905220109 | 82 | 336 | 2.0 | 2.0 | 0.00 | 0.00 | 0.00 | 32 | 1025.0 |
| 20260905215609 | 81 | 205 | 2.0 | 2.0 | 0.00 | 0.00 | 0.00 | 31 | 1025.2 |
| 20260905215104 | 80 | 233 | 1.0 | 1.0 | 0.00 | 0.00 | 0.00 | 32 | 1025.4 |
| 20260905214600 | 78 | 331 | 2.0 | 2.0 | 0.00 | 0.00 | 0.00 | 34 | 1025.1 |
| 20260905214055 | 78 | 12 | 0.0 | 0.0 | 0.00 | 0.00 | 0.00 | 35 | 1025.5 |
| 20260905213550 | 77 | 337 | 1.0 | 1.0 | 0.00 | 0.00 | 0.00 | 38 | 1025.2 |
| 20260905213045 | 78 | 208 | 1.0 | 2.0 | 0.00 | 0.00 | 0.00 | 35 | 1025.6 |
| 20260905212545 | 78 | 309 | 0.0 | 1.0 | 0.00 | 0.00 | 0.00 | 34 | 1025.9 |
| 20260905212045 | 78 | 331 | 0.0 | 1.0 | 0.00 | 0.00 | 0.00 | 33 | 1026.0 |